Ramsar, Iran
Current Conditions -  °F | °C
As of 9:00 AM on Saturday 29 Nov 2014 (Local Time) from OINR Reporting Station
Light Rain Light Rain  
Wind Chill: 50°   Ceiling: 2700
Heat Index: 50°   Visibility: 5mi
Dew Point: 46°   Wind: 5mph
Humidity: 87%   Direction: 280°W
Pressure: 30.27"   Gusts: NA
Location:  36.9°N, 50.67°E
Report Text: OINR 290600Z 28004KT 8000 -RA FEW025CB BKN027 OVC080 10/08 Q1025
Loading
Personal Weather Stations






























Interactive Weather Map New forecast layout! Learn more

10-Day Weather Forecast

Advertisements
Track Severe Weather on mobile